Ashfordby, United Kingdom
Current Conditions -  °F | °C
As of 8:50 AM on Friday 26 Dec 2014 (Local Time) from EGNX Reporting Station
Clear Clear  
Wind Chill: 29°   Ceiling: Unl
Heat Index: 36°   Visibility: 6mi
Dew Point: 34°   Wind: 9mph
Humidity: 93%   Direction: 200°SSW
Pressure: 30.36"   Gusts: NA
Location:  52.75°N, 0.95°W
Report Text: EGNX 260850Z 20008KT CAVOK 02/01 Q1028
Loading
Personal Weather Stations






























Interactive Weather Map New forecast layout! Learn more

10-Day Weather Forecast

Advertisements
Track Severe Weather on mobile